createdAt,value
2023-05-01T00:01:13.408Z,100.00
2023-05-01T00:04:15.364Z,100.00
2023-05-01T00:07:17.466Z,100.00
2023-05-01T00:10:20.268Z,100.00
2023-05-01T00:13:24.226Z,100.00
2023-05-01T00:16:25.948Z,100.00
2023-05-01T00:19:27.702Z,100.00
2023-05-01T00:22:29.733Z,100.00
2023-05-01T00:25:31.581Z,100.00
2023-05-01T00:28:33.367Z,100.00
2023-05-01T00:31:35.283Z,100.00
2023-05-01T00:34:37.054Z,100.00
2023-05-01T00:37:39.399Z,100.00
2023-05-01T00:40:45.203Z,100.00
2023-05-01T00:43:47.120Z,100.00
2023-05-01T00:46:49.170Z,100.00
2023-05-01T00:49:52.911Z,100.00
2023-05-01T00:52:55.665Z,100.00
2023-05-01T00:55:58.577Z,100.00
2023-05-01T00:59:00.698Z,100.00
2023-05-01T01:02:03.015Z,100.00
2023-05-01T01:05:05.292Z,100.00
2023-05-01T01:08:46.309Z,100.00
2023-05-01T01:12:24.870Z,100.00
2023-05-01T01:15:52.646Z,100.00
2023-05-01T01:19:35.268Z,100.00
2023-05-01T01:22:41.413Z,100.00
2023-05-01T01:26:18.459Z,100.00
2023-05-01T01:29:44.750Z,100.00
2023-05-01T01:33:24.109Z,100.00
2023-05-01T01:36:43.274Z,100.00
2023-05-01T01:40:05.607Z,100.00
2023-05-01T01:43:10.855Z,100.00
2023-05-01T01:46:12.967Z,100.00
2023-05-01T01:49:21.043Z,100.00
2023-05-01T01:52:25.943Z,100.00
2023-05-01T01:55:31.028Z,100.00
2023-05-01T01:58:36.764Z,100.00
2023-05-01T02:01:40.855Z,100.00
2023-05-01T02:04:44.293Z,100.00
2023-05-01T02:07:48.820Z,100.00
2023-05-01T02:10:52.128Z,100.00
2023-05-01T02:13:56.422Z,100.00
2023-05-01T02:16:59.322Z,100.00
2023-05-01T02:20:05.547Z,100.00
2023-05-01T02:23:08.112Z,100.00
2023-05-01T02:26:17.050Z,100.00
2023-05-01T02:29:19.007Z,100.00
2023-05-01T02:32:20.972Z,100.00
2023-05-01T02:35:24.194Z,100.00
2023-05-01T02:38:25.908Z,100.00
2023-05-01T02:41:29.449Z,100.00
2023-05-01T02:44:42.238Z,100.00
2023-05-01T02:47:48.549Z,100.00
2023-05-01T02:50:51.798Z,100.00
2023-05-01T02:53:55.372Z,100.00
2023-05-01T02:56:59.800Z,100.00
2023-05-01T03:00:01.695Z,100.00
2023-05-01T03:03:03.581Z,100.00
2023-05-01T03:06:05.759Z,100.00
2023-05-01T03:09:08.223Z,100.00
2023-05-01T03:12:11.738Z,100.00
2023-05-01T03:15:13.763Z,100.00
2023-05-01T03:18:15.521Z,100.00
2023-05-01T03:21:17.454Z,100.00
2023-05-01T03:24:19.293Z,100.00
2023-05-01T03:27:21.282Z,100.00
2023-05-01T03:30:23.259Z,100.00
2023-05-01T03:33:27.927Z,100.00
2023-05-01T03:36:29.672Z,100.00
2023-05-01T03:39:31.630Z,100.00
2023-05-01T03:42:52.027Z,100.00
2023-05-01T03:45:58.293Z,100.00
2023-05-01T03:49:00.822Z,100.00
2023-05-01T03:52:06.458Z,100.00
2023-05-01T03:55:08.991Z,100.00
2023-05-01T03:58:15.672Z,100.00
2023-05-01T04:01:17.775Z,100.00
2023-05-01T04:04:21.991Z,100.00
2023-05-01T04:07:30.501Z,100.00
2023-05-01T04:10:32.420Z,100.00
2023-05-01T04:13:38.773Z,100.00
2023-05-01T04:16:42.018Z,100.00
2023-05-01T04:19:48.133Z,100.00
2023-05-01T04:22:50.028Z,100.00
2023-05-01T04:25:52.441Z,100.00
2023-05-01T04:28:54.422Z,100.00
2023-05-01T04:32:01.490Z,100.00
2023-05-01T04:35:04.868Z,100.00
2023-05-01T04:38:08.202Z,100.00
2023-05-01T04:41:10.491Z,100.00
2023-05-01T04:44:13.411Z,100.00
2023-05-01T04:47:17.671Z,100.00
2023-05-01T04:50:20.266Z,100.00
2023-05-01T04:53:22.329Z,100.00
2023-05-01T04:56:25.280Z,100.00
2023-05-01T04:59:31.090Z,100.00
2023-05-01T05:02:34.492Z,100.00
2023-05-01T05:05:36.400Z,100.00
2023-05-01T05:08:40.349Z,100.00
2023-05-01T05:11:45.722Z,100.00
2023-05-01T05:14:55.433Z,100.00
2023-05-01T05:17:57.504Z,100.00
2023-05-01T05:21:04.778Z,100.00
2023-05-01T05:24:07.139Z,100.00
2023-05-01T05:27:09.101Z,100.00
2023-05-01T05:30:11.409Z,100.00
2023-05-01T05:33:14.063Z,100.00
2023-05-01T05:36:16.118Z,100.00
2023-05-01T05:39:23.991Z,100.00
2023-05-01T05:42:25.897Z,100.00
2023-05-01T05:45:28.086Z,100.00
2023-05-01T05:48:31.847Z,100.00
2023-05-01T05:51:34.024Z,100.00
2023-05-01T05:54:36.948Z,100.00
2023-05-01T05:57:39.056Z,100.00
2023-05-01T06:00:42.177Z,100.00
2023-05-01T06:03:44.911Z,100.00
2023-05-01T06:06:50.144Z,100.00
2023-05-01T06:09:52.148Z,100.00
2023-05-01T06:13:01.326Z,100.00
2023-05-01T06:16:17.957Z,100.00
2023-05-01T06:19:19.869Z,100.00
2023-05-01T06:22:26.310Z,100.00
2023-05-01T06:25:39.408Z,100.00
2023-05-01T06:28:41.547Z,100.00
2023-05-01T06:31:43.671Z,100.00
2023-05-01T06:34:45.964Z,100.00
2023-05-01T06:37:50.679Z,100.00
2023-05-01T06:40:52.780Z,100.00
2023-05-01T06:43:59.958Z,100.00
2023-05-01T06:47:02.085Z,100.00
2023-05-01T06:50:05.669Z,100.00
2023-05-01T06:53:08.373Z,100.00
2023-05-01T06:56:11.012Z,100.00
2023-05-01T06:59:15.393Z,100.00
2023-05-01T07:02:17.270Z,100.00
2023-05-01T07:05:19.498Z,100.00
2023-05-01T07:08:21.612Z,100.00
2023-05-01T07:11:23.948Z,100.00
2023-05-01T07:14:25.773Z,100.00
2023-05-01T07:17:29.300Z,100.00
2023-05-01T07:20:31.390Z,100.00
2023-05-01T07:23:33.235Z,100.00
2023-05-01T07:26:35.822Z,100.00
2023-05-01T07:29:44.584Z,100.00
2023-05-01T07:32:50.670Z,100.00
2023-05-01T07:35:53.619Z,100.00
2023-05-01T07:38:56.627Z,100.00
2023-05-01T07:41:59.073Z,100.00
2023-05-01T07:45:01.082Z,100.00
2023-05-01T07:48:05.104Z,100.00
2023-05-01T07:51:07.280Z,100.00
2023-05-01T07:54:11.543Z,100.00
2023-05-01T07:57:13.644Z,100.00
2023-05-01T08:00:16.186Z,100.00
2023-05-01T08:03:18.307Z,100.00
2023-05-01T08:06:20.352Z,100.00
2023-05-01T08:09:22.169Z,100.00
2023-05-01T08:12:24.191Z,100.00
2023-05-01T08:15:26.229Z,100.00
2023-05-01T08:18:28.001Z,100.00
2023-05-01T08:21:29.853Z,100.00
2023-05-01T08:24:31.924Z,100.00
2023-05-01T08:27:34.070Z,100.00
2023-05-01T08:30:35.955Z,100.00
2023-05-01T08:33:37.731Z,100.00
2023-05-01T08:36:39.649Z,100.00
2023-05-01T08:39:41.766Z,100.00
2023-05-01T08:42:44.157Z,100.00
2023-05-01T08:45:48.006Z,100.00
2023-05-01T08:48:51.866Z,100.00
2023-05-01T08:51:57.220Z,100.00
2023-05-01T08:55:01.571Z,100.00
2023-05-01T08:58:05.455Z,100.00
2023-05-01T09:01:16.181Z,100.00
2023-05-01T09:04:18.195Z,100.00
2023-05-01T09:07:21.667Z,100.00
2023-05-01T09:10:27.892Z,100.00
2023-05-01T09:13:31.182Z,100.00
2023-05-01T09:16:34.060Z,100.00
2023-05-01T09:19:38.053Z,100.00
2023-05-01T09:22:44.316Z,100.00
2023-05-01T09:25:47.307Z,100.00
2023-05-01T09:28:59.054Z,100.00
2023-05-01T09:32:22.947Z,100.00
2023-05-01T09:35:26.483Z,100.00
2023-05-01T09:38:35.611Z,100.00
2023-05-01T09:41:52.559Z,100.00
2023-05-01T09:44:57.923Z,100.00
2023-05-01T09:48:18.638Z,100.00
2023-05-01T09:51:23.222Z,100.00
2023-05-01T09:54:27.251Z,100.00
2023-05-01T09:57:38.592Z,100.00
2023-05-01T10:00:52.752Z,100.00
2023-05-01T10:03:57.426Z,100.00
2023-05-01T10:07:13.013Z,100.00
2023-05-01T10:10:22.475Z,100.00
2023-05-01T10:13:24.120Z,100.00
2023-05-01T10:16:32.211Z,100.00
2023-05-01T10:19:33.935Z,100.00
2023-05-01T10:22:35.983Z,100.00
2023-05-01T10:25:39.058Z,100.00
2023-05-01T10:28:41.864Z,100.00
2023-05-01T10:31:43.545Z,99.74
2023-05-01T10:34:56.366Z,100.00
2023-05-01T10:38:04.877Z,100.00
2023-05-01T10:41:06.896Z,94.31
2023-05-01T10:44:24.348Z,100.00
2023-05-01T10:47:28.759Z,98.57
2023-05-01T10:50:30.745Z,94.10
2023-05-01T10:53:32.413Z,98.63
2023-05-01T10:56:33.956Z,95.15
2023-05-01T11:00:01.327Z,100.00
2023-05-01T11:03:36.667Z,92.29
2023-05-01T11:06:38.535Z,95.07
2023-05-01T11:09:59.153Z,81.48
2023-05-01T11:13:00.844Z,85.60
2023-05-01T11:16:38.139Z,83.55
2023-05-01T11:19:40.010Z,84.64
2023-05-01T11:22:51.817Z,100.00
2023-05-01T11:26:02.254Z,80.46
2023-05-01T11:29:06.160Z,85.45
2023-05-01T11:32:08.773Z,84.24
2023-05-01T11:35:23.672Z,82.54
2023-05-01T11:38:25.550Z,80.63
2023-05-01T11:41:29.669Z,75.51
2023-05-01T11:44:31.456Z,77.10
2023-05-01T11:47:33.356Z,77.14
2023-05-01T11:50:41.336Z,86.22
2023-05-01T11:53:43.239Z,73.05
2023-05-01T11:56:44.958Z,73.23
2023-05-01T11:59:48.254Z,71.89
2023-05-01T12:03:02.654Z,76.13
2023-05-01T12:06:04.772Z,69.42
2023-05-01T12:09:10.907Z,69.29
2023-05-01T12:12:13.249Z,65.88
2023-05-01T12:15:15.116Z,64.31
2023-05-01T12:18:18.617Z,63.36
2023-05-01T12:21:20.584Z,62.23
2023-05-01T12:24:22.473Z,59.92
2023-05-01T12:27:24.197Z,58.35
2023-05-01T12:30:27.240Z,56.53
2023-05-01T12:33:28.897Z,58.21
2023-05-01T12:36:34.836Z,59.57
2023-05-01T12:39:39.200Z,62.53
2023-05-01T12:42:43.499Z,61.05
2023-05-01T12:45:45.417Z,60.20
2023-05-01T12:48:49.210Z,62.57
2023-05-01T12:51:52.796Z,61.57
2023-05-01T12:55:09.142Z,57.77
2023-05-01T12:58:11.065Z,59.27
2023-05-01T13:01:13.010Z,56.09
2023-05-01T13:04:22.187Z,55.38
2023-05-01T13:07:24.169Z,61.01
2023-05-01T13:10:32.831Z,57.99
2023-05-01T13:13:36.053Z,56.30
2023-05-01T13:16:49.394Z,58.27
2023-05-01T13:19:59.871Z,55.41
2023-05-01T13:23:10.721Z,63.23
2023-05-01T13:26:13.519Z,61.45
2023-05-01T13:29:15.803Z,61.33
2023-05-01T13:32:17.849Z,62.93
2023-05-01T13:35:24.876Z,63.83
2023-05-01T13:38:27.044Z,65.05
2023-05-01T13:41:30.527Z,61.99
2023-05-01T13:44:32.347Z,62.28
2023-05-01T13:47:37.324Z,58.07
2023-05-01T13:50:42.258Z,58.52
2023-05-01T13:53:43.980Z,54.53
2023-05-01T13:56:46.511Z,53.58
2023-05-01T13:59:48.943Z,55.33
2023-05-01T14:02:53.566Z,53.32
2023-05-01T14:05:55.654Z,55.54
2023-05-01T14:09:00.143Z,60.33
2023-05-01T14:12:02.319Z,59.31
2023-05-01T14:15:05.191Z,61.17
2023-05-01T14:18:07.454Z,62.13
2023-05-01T14:21:11.350Z,60.39
2023-05-01T14:24:16.029Z,62.93
2023-05-01T14:27:22.407Z,63.25
2023-05-01T14:30:51.479Z,62.34
2023-05-01T14:33:59.584Z,65.59
2023-05-01T14:37:01.569Z,64.37
2023-05-01T14:40:04.203Z,60.18
2023-05-01T14:43:06.004Z,64.17
2023-05-01T14:46:07.879Z,65.16
2023-05-01T14:49:11.767Z,65.36
2023-05-01T14:52:19.565Z,68.83
2023-05-01T14:55:29.517Z,66.60
2023-05-01T14:58:31.451Z,66.41
2023-05-01T15:01:33.400Z,61.10
2023-05-01T15:04:35.366Z,57.52
2023-05-01T15:07:37.784Z,57.16
2023-05-01T15:10:39.534Z,61.28
2023-05-01T15:13:42.737Z,63.77
2023-05-01T15:16:44.618Z,67.55
2023-05-01T15:19:46.374Z,63.30
2023-05-01T15:22:48.022Z,65.70
2023-05-01T15:25:50.955Z,60.33
2023-05-01T15:28:53.312Z,57.37
2023-05-01T15:32:08.255Z,55.88
2023-05-01T15:35:13.493Z,51.46
2023-05-01T15:38:15.666Z,53.16
2023-05-01T15:41:18.996Z,50.19
2023-05-01T15:44:21.392Z,48.57
2023-05-01T15:47:23.121Z,48.24
2023-05-01T15:50:24.854Z,46.18
2023-05-01T15:53:26.473Z,43.53
2023-05-01T15:56:28.601Z,46.03
2023-05-01T15:59:30.862Z,45.41
2023-05-01T16:02:33.045Z,46.04
2023-05-01T16:05:36.887Z,47.32
2023-05-01T16:08:39.756Z,48.81
2023-05-01T16:11:41.520Z,47.42
2023-05-01T16:14:43.368Z,45.79
2023-05-01T16:17:46.899Z,46.41
2023-05-01T16:20:48.831Z,44.03
2023-05-01T16:23:53.178Z,44.98
2023-05-01T16:26:54.972Z,44.76
2023-05-01T16:29:56.924Z,44.40
2023-05-01T16:32:58.789Z,45.37
2023-05-01T16:36:03.922Z,44.64
2023-05-01T16:39:05.679Z,45.05
2023-05-01T16:42:11.539Z,42.97
2023-05-01T16:45:13.213Z,42.98
2023-05-01T16:48:20.805Z,45.55
2023-05-01T16:51:23.465Z,49.09
2023-05-01T16:54:32.139Z,53.61
2023-05-01T16:57:34.028Z,52.61
2023-05-01T17:00:36.051Z,52.16
2023-05-01T17:03:38.278Z,50.20
2023-05-01T17:06:39.907Z,52.49
2023-05-01T17:09:41.792Z,52.12
2023-05-01T17:12:44.564Z,53.55
2023-05-01T17:15:48.457Z,51.85
2023-05-01T17:18:50.301Z,51.12
2023-05-01T17:21:51.922Z,52.49
2023-05-01T17:24:53.686Z,52.60
2023-05-01T17:27:55.748Z,52.65
2023-05-01T17:31:05.473Z,56.51
2023-05-01T17:34:07.343Z,58.03
2023-05-01T17:37:11.521Z,60.60
2023-05-01T17:40:15.859Z,63.17
2023-05-01T17:43:20.780Z,66.19
2023-05-01T17:46:25.333Z,70.46
2023-05-01T17:49:29.770Z,72.71
2023-05-01T17:52:36.622Z,75.32
2023-05-01T17:55:40.068Z,79.15
2023-05-01T17:58:42.598Z,84.83
2023-05-01T18:01:45.033Z,90.20
2023-05-01T18:04:50.696Z,93.98
2023-05-01T18:07:52.993Z,96.57
2023-05-01T18:10:54.903Z,99.72
2023-05-01T18:13:56.934Z,100.00
2023-05-01T18:16:58.903Z,100.00
2023-05-01T18:20:01.045Z,100.00
2023-05-01T18:23:03.133Z,100.00
2023-05-01T18:26:05.131Z,100.00
2023-05-01T18:29:07.734Z,100.00
2023-05-01T18:32:12.834Z,100.00
2023-05-01T18:35:19.004Z,100.00
2023-05-01T18:38:20.922Z,100.00
2023-05-01T18:41:22.862Z,100.00
2023-05-01T18:44:24.536Z,100.00
2023-05-01T18:47:27.498Z,100.00
2023-05-01T18:50:29.470Z,100.00
2023-05-01T18:53:31.267Z,100.00
2023-05-01T18:56:33.421Z,100.00
2023-05-01T18:59:35.203Z,100.00
2023-05-01T19:02:37.167Z,100.00
2023-05-01T19:05:41.206Z,100.00
2023-05-01T19:08:42.935Z,100.00
2023-05-01T19:11:44.881Z,100.00
2023-05-01T19:14:47.906Z,100.00
2023-05-01T19:17:50.017Z,100.00
2023-05-01T19:20:51.618Z,100.00
2023-05-01T19:23:53.571Z,100.00
2023-05-01T19:26:55.846Z,100.00
2023-05-01T19:30:00.901Z,100.00
2023-05-01T19:33:04.095Z,100.00
2023-05-01T19:36:05.998Z,100.00
2023-05-01T19:39:07.751Z,100.00
2023-05-01T19:42:12.201Z,100.00
2023-05-01T19:45:15.110Z,100.00
2023-05-01T19:48:18.821Z,100.00
2023-05-01T19:51:20.799Z,100.00
2023-05-01T19:54:24.867Z,100.00
2023-05-01T19:57:26.652Z,100.00
2023-05-01T20:00:28.358Z,100.00
2023-05-01T20:03:30.072Z,100.00
2023-05-01T20:06:32.326Z,100.00
2023-05-01T20:09:33.985Z,100.00
2023-05-01T20:12:35.835Z,100.00
2023-05-01T20:15:38.756Z,100.00
2023-05-01T20:18:40.563Z,100.00
2023-05-01T20:21:42.769Z,100.00
2023-05-01T20:24:44.459Z,100.00
2023-05-01T20:27:46.407Z,100.00
2023-05-01T20:30:49.052Z,100.00
2023-05-01T20:33:50.598Z,100.00
2023-05-01T20:36:52.354Z,100.00
2023-05-01T20:39:54.044Z,100.00
2023-05-01T20:42:56.208Z,100.00
2023-05-01T20:45:59.636Z,100.00
2023-05-01T20:49:01.669Z,100.00
2023-05-01T20:52:03.473Z,100.00
2023-05-01T20:55:06.128Z,100.00
2023-05-01T20:58:07.675Z,100.00
2023-05-01T21:01:09.794Z,100.00
2023-05-01T21:04:11.613Z,100.00
2023-05-01T21:07:13.409Z,100.00
2023-05-01T21:10:16.522Z,100.00
2023-05-01T21:13:20.904Z,100.00
2023-05-01T21:16:22.584Z,100.00
2023-05-01T21:19:24.555Z,100.00
2023-05-01T21:22:26.897Z,100.00
2023-05-01T21:25:31.684Z,100.00
2023-05-01T21:28:33.473Z,100.00
2023-05-01T21:31:37.004Z,100.00
2023-05-01T21:34:39.033Z,100.00
2023-05-01T21:37:43.766Z,100.00
2023-05-01T21:40:46.223Z,100.00
2023-05-01T21:43:47.965Z,100.00
2023-05-01T21:46:53.307Z,100.00
2023-05-01T21:50:01.212Z,100.00
2023-05-01T21:53:03.850Z,100.00
2023-05-01T21:56:06.277Z,100.00
2023-05-01T21:59:08.407Z,100.00
2023-05-01T22:02:14.967Z,100.00
2023-05-01T22:05:20.051Z,100.00
2023-05-01T22:08:22.960Z,100.00
2023-05-01T22:11:26.146Z,100.00
2023-05-01T22:14:46.169Z,100.00
2023-05-01T22:17:49.022Z,100.00
2023-05-01T22:20:50.925Z,100.00
2023-05-01T22:23:53.620Z,100.00
2023-05-01T22:26:55.547Z,100.00
2023-05-01T22:29:57.671Z,100.00
2023-05-01T22:32:59.491Z,100.00
2023-05-01T22:36:01.379Z,100.00
2023-05-01T22:39:03.822Z,100.00
2023-05-01T22:42:05.749Z,100.00
2023-05-01T22:45:07.576Z,100.00
2023-05-01T22:48:09.584Z,100.00
2023-05-01T22:51:11.397Z,100.00
2023-05-01T22:54:13.103Z,100.00
2023-05-01T22:57:14.738Z,100.00
2023-05-01T23:00:17.053Z,100.00
2023-05-01T23:03:18.850Z,100.00
2023-05-01T23:06:20.895Z,100.00
2023-05-01T23:09:22.675Z,100.00
2023-05-01T23:12:25.888Z,100.00
2023-05-01T23:15:27.586Z,100.00
2023-05-01T23:18:39.643Z,100.00
2023-05-01T23:21:41.230Z,100.00
2023-05-01T23:24:49.304Z,100.00
2023-05-01T23:27:53.785Z,100.00
2023-05-01T23:31:00.311Z,100.00
2023-05-01T23:34:02.894Z,100.00
2023-05-01T23:37:04.466Z,100.00
2023-05-01T23:40:07.774Z,100.00
2023-05-01T23:43:10.907Z,100.00
2023-05-01T23:46:12.969Z,100.00
2023-05-01T23:49:14.684Z,100.00
2023-05-01T23:52:16.483Z,100.00
2023-05-01T23:55:18.331Z,100.00
2023-05-01T23:58:20.216Z,100.00
